createdAt,value
2023-05-10T00:00:24.077Z,7.25
2023-05-10T00:03:11.523Z,7.24
2023-05-10T00:05:41.564Z,7.23
2023-05-10T00:08:10.303Z,7.21
2023-05-10T00:10:39.807Z,7.21
2023-05-10T00:13:08.922Z,7.20
2023-05-10T00:15:39.091Z,7.19
2023-05-10T00:18:09.067Z,7.17
2023-05-10T00:20:37.622Z,7.14
2023-05-10T00:23:06.792Z,7.13
2023-05-10T00:25:35.246Z,7.10
2023-05-10T00:28:05.803Z,7.08
2023-05-10T00:30:34.424Z,7.05
2023-05-10T00:33:04.104Z,7.04
2023-05-10T00:35:32.601Z,7.01
2023-05-10T00:38:01.138Z,6.99
2023-05-10T00:40:31.923Z,6.96
2023-05-10T00:43:13.971Z,6.94
2023-05-10T00:45:42.665Z,6.91
2023-05-10T00:48:11.440Z,6.88
2023-05-10T00:50:41.169Z,6.86
2023-05-10T00:53:11.423Z,6.83
2023-05-10T00:55:40.146Z,6.79
2023-05-10T00:58:08.746Z,6.75
2023-05-10T01:00:43.054Z,6.72
2023-05-10T01:03:13.066Z,6.69
2023-05-10T01:05:45.033Z,6.66
2023-05-10T01:08:15.686Z,6.63
2023-05-10T01:10:45.368Z,6.60
2023-05-10T01:13:14.737Z,6.57
2023-05-10T01:15:43.357Z,6.53
2023-05-10T01:18:13.113Z,6.48
2023-05-10T01:20:49.971Z,6.44
2023-05-10T01:23:30.255Z,6.39
2023-05-10T01:26:36.444Z,6.34
2023-05-10T01:29:05.280Z,6.29
2023-05-10T01:32:27.513Z,6.25
2023-05-10T01:35:04.315Z,6.18
2023-05-10T01:37:37.680Z,6.12
2023-05-10T01:40:28.756Z,6.07
2023-05-10T01:43:05.217Z,6.01
2023-05-10T01:45:47.493Z,5.97
2023-05-10T01:48:18.523Z,5.92
2023-05-10T01:50:50.151Z,5.86
2023-05-10T01:53:21.665Z,5.83
2023-05-10T01:55:54.667Z,5.79
2023-05-10T01:58:33.712Z,5.75
2023-05-10T02:01:06.168Z,5.73
2023-05-10T02:03:37.328Z,5.71
2023-05-10T02:06:08.300Z,5.69
2023-05-10T02:08:39.059Z,5.68
2023-05-10T02:11:09.850Z,5.66
2023-05-10T02:13:40.845Z,5.65
2023-05-10T02:16:09.993Z,5.64
2023-05-10T02:18:41.134Z,5.62
2023-05-10T02:21:11.606Z,5.60
2023-05-10T02:23:41.414Z,5.59
2023-05-10T02:26:11.887Z,5.57
2023-05-10T02:28:42.157Z,5.55
2023-05-10T02:31:12.235Z,5.54
2023-05-10T02:33:44.541Z,5.52
2023-05-10T02:36:14.815Z,5.49
2023-05-10T02:38:44.981Z,5.48
2023-05-10T02:41:14.579Z,5.46
2023-05-10T02:43:45.682Z,5.42
2023-05-10T02:46:15.600Z,5.40
2023-05-10T02:48:44.333Z,5.37
2023-05-10T02:51:15.248Z,5.34
2023-05-10T02:53:47.854Z,5.30
2023-05-10T02:56:26.923Z,5.26
2023-05-10T02:58:56.942Z,5.22
2023-05-10T03:01:25.467Z,5.18
2023-05-10T03:03:54.582Z,5.15
2023-05-10T03:06:24.166Z,5.12
2023-05-10T03:08:52.791Z,5.08
2023-05-10T03:11:39.471Z,5.05
2023-05-10T03:14:45.419Z,5.02
2023-05-10T03:17:36.156Z,5.00
2023-05-10T03:20:11.315Z,4.97
2023-05-10T03:22:48.105Z,4.95
2023-05-10T03:25:19.481Z,4.91
2023-05-10T03:27:51.385Z,4.89
2023-05-10T03:30:23.097Z,4.87
2023-05-10T03:32:52.582Z,4.86
2023-05-10T03:35:21.258Z,4.85
2023-05-10T03:37:50.175Z,4.85
2023-05-10T03:40:18.893Z,4.84
2023-05-10T03:42:48.061Z,4.85
2023-05-10T03:45:17.185Z,4.87
2023-05-10T03:47:46.124Z,4.88
2023-05-10T03:50:15.243Z,4.89
2023-05-10T03:52:45.473Z,4.92
2023-05-10T03:55:14.036Z,4.96
2023-05-10T03:57:42.816Z,5.01
2023-05-10T04:00:12.481Z,5.05
2023-05-10T04:02:45.884Z,5.09
2023-05-10T04:05:20.832Z,5.15
2023-05-10T04:07:52.191Z,5.19
2023-05-10T04:10:21.956Z,5.23
2023-05-10T04:12:50.540Z,5.28
2023-05-10T04:15:18.986Z,5.34
2023-05-10T04:17:47.764Z,5.38
2023-05-10T04:20:16.666Z,5.43
2023-05-10T04:22:45.569Z,5.49
2023-05-10T04:25:14.110Z,5.54
2023-05-10T04:27:43.400Z,5.59
2023-05-10T04:30:12.380Z,5.67
2023-05-10T04:32:40.931Z,5.85
2023-05-10T04:35:11.394Z,6.10
2023-05-10T04:37:40.184Z,6.35
2023-05-10T04:40:14.027Z,6.60
2023-05-10T04:42:43.427Z,6.88
2023-05-10T04:45:12.080Z,7.15
2023-05-10T04:47:40.472Z,7.37
2023-05-10T04:50:09.659Z,7.58
2023-05-10T04:52:37.966Z,7.77
2023-05-10T04:55:08.646Z,7.94
2023-05-10T04:57:37.838Z,8.14
2023-05-10T05:00:07.127Z,8.32
2023-05-10T05:02:36.072Z,8.53
2023-05-10T05:05:04.634Z,8.74
2023-05-10T05:07:33.089Z,8.92
2023-05-10T05:10:02.384Z,9.09
2023-05-10T05:12:30.611Z,9.28
2023-05-10T05:14:59.086Z,9.44
2023-05-10T05:17:27.407Z,9.59
2023-05-10T05:19:55.501Z,9.71
2023-05-10T05:22:29.064Z,9.83
2023-05-10T05:25:03.459Z,9.96
2023-05-10T05:27:33.235Z,10.11
2023-05-10T05:30:01.571Z,10.21
2023-05-10T05:32:30.060Z,10.28
2023-05-10T05:34:58.319Z,10.36
2023-05-10T05:37:26.560Z,10.48
2023-05-10T05:39:56.067Z,10.62
2023-05-10T05:42:24.589Z,10.82
2023-05-10T05:44:53.778Z,11.03
2023-05-10T05:47:23.020Z,11.19
2023-05-10T05:49:52.041Z,11.32
2023-05-10T05:52:20.495Z,11.45
2023-05-10T05:54:49.779Z,11.59
2023-05-10T05:57:18.150Z,11.70
2023-05-10T05:59:46.863Z,11.83
2023-05-10T06:02:15.060Z,11.94
2023-05-10T06:04:44.823Z,12.07
2023-05-10T06:07:13.662Z,12.21
2023-05-10T06:09:44.418Z,12.38
2023-05-10T06:12:15.107Z,12.56
2023-05-10T06:14:43.441Z,12.72
2023-05-10T06:17:11.759Z,12.91
2023-05-10T06:19:39.949Z,13.09
2023-05-10T06:22:08.682Z,13.19
2023-05-10T06:24:37.234Z,13.27
2023-05-10T06:27:05.507Z,13.31
2023-05-10T06:29:33.930Z,13.33
2023-05-10T06:32:02.421Z,13.37
2023-05-10T06:34:30.834Z,13.40
2023-05-10T06:36:59.295Z,13.42
2023-05-10T06:39:27.461Z,13.39
2023-05-10T06:41:56.174Z,13.36
2023-05-10T06:44:24.309Z,13.39
2023-05-10T06:46:57.517Z,13.36
2023-05-10T06:49:29.206Z,13.44
2023-05-10T06:51:57.697Z,13.58
2023-05-10T06:54:27.066Z,13.67
2023-05-10T06:56:55.996Z,13.69
2023-05-10T06:59:25.751Z,13.70
2023-05-10T07:01:58.983Z,13.68
2023-05-10T07:04:28.842Z,13.79
2023-05-10T07:07:16.250Z,13.96
2023-05-10T07:10:05.812Z,14.07
2023-05-10T07:13:39.399Z,14.19
2023-05-10T07:16:09.040Z,14.31
2023-05-10T07:18:59.278Z,14.37
2023-05-10T07:21:38.675Z,14.36
2023-05-10T07:24:28.959Z,14.40
2023-05-10T07:28:05.436Z,14.49
2023-05-10T07:30:11.080Z,14.64
2023-05-10T07:32:40.795Z,14.70
2023-05-10T07:35:28.907Z,14.71
2023-05-10T07:38:09.390Z,14.78
2023-05-10T07:40:38.165Z,14.81
2023-05-10T07:43:13.103Z,14.97
2023-05-10T07:45:41.441Z,15.14
2023-05-10T07:48:11.027Z,15.29
2023-05-10T07:50:39.782Z,15.50
2023-05-10T07:53:08.692Z,15.64
2023-05-10T07:55:37.388Z,15.73
2023-05-10T07:58:05.662Z,15.80
2023-05-10T08:00:34.012Z,15.93
2023-05-10T08:03:02.382Z,16.11
2023-05-10T08:05:33.975Z,16.25
2023-05-10T08:08:03.513Z,16.38
2023-05-10T08:10:31.698Z,16.49
2023-05-10T08:12:59.926Z,16.53
2023-05-10T08:15:28.213Z,16.63
2023-05-10T08:17:56.888Z,16.74
2023-05-10T08:20:27.495Z,16.80
2023-05-10T08:22:56.377Z,16.89
2023-05-10T08:25:24.956Z,17.04
2023-05-10T08:27:53.295Z,17.20
2023-05-10T08:30:21.635Z,17.19
2023-05-10T08:32:49.910Z,17.19
2023-05-10T08:35:18.348Z,17.31
2023-05-10T08:37:46.691Z,17.45
2023-05-10T08:40:16.596Z,17.54
2023-05-10T08:42:59.742Z,17.61
2023-05-10T08:45:32.114Z,17.75
2023-05-10T08:48:06.185Z,17.86
2023-05-10T08:50:37.797Z,17.87
2023-05-10T08:53:11.162Z,17.81
2023-05-10T08:55:41.366Z,17.65
2023-05-10T08:58:11.184Z,17.59
2023-05-10T09:00:39.521Z,17.67
2023-05-10T09:03:08.245Z,17.79
2023-05-10T09:05:37.651Z,17.85
2023-05-10T09:08:07.720Z,17.90
2023-05-10T09:10:36.899Z,17.98
2023-05-10T09:13:09.035Z,17.98
2023-05-10T09:15:50.040Z,18.02
2023-05-10T09:18:18.451Z,18.00
2023-05-10T09:20:47.271Z,18.05
2023-05-10T09:23:16.465Z,18.00
2023-05-10T09:25:44.973Z,17.94
2023-05-10T09:28:16.220Z,17.89
2023-05-10T09:30:44.777Z,17.79
2023-05-10T09:33:12.971Z,17.57
2023-05-10T09:35:41.742Z,17.30
2023-05-10T09:38:11.459Z,17.21
2023-05-10T09:40:39.808Z,17.29
2023-05-10T09:43:09.045Z,17.39
2023-05-10T09:45:42.227Z,17.51
2023-05-10T09:48:11.992Z,17.70
2023-05-10T09:50:40.383Z,17.85
2023-05-10T09:53:17.367Z,18.03
2023-05-10T09:55:48.980Z,18.22
2023-05-10T09:58:17.509Z,18.35
2023-05-10T10:00:55.574Z,18.54
2023-05-10T10:03:25.367Z,18.64
2023-05-10T10:05:54.382Z,18.50
2023-05-10T10:08:23.174Z,18.27
2023-05-10T10:10:56.118Z,17.99
2023-05-10T10:13:24.527Z,17.81
2023-05-10T10:15:56.150Z,17.55
2023-05-10T10:18:28.248Z,17.39
2023-05-10T10:20:57.638Z,17.32
2023-05-10T10:23:26.336Z,17.31
2023-05-10T10:26:04.719Z,17.38
2023-05-10T10:29:05.831Z,17.57
2023-05-10T10:31:59.371Z,17.84
2023-05-10T10:34:31.586Z,18.04
2023-05-10T10:37:05.842Z,18.04
2023-05-10T10:39:34.413Z,18.17
2023-05-10T10:42:04.528Z,18.34
2023-05-10T10:44:35.569Z,18.54
2023-05-10T10:47:15.854Z,18.73
2023-05-10T10:49:52.476Z,18.98
2023-05-10T10:52:31.179Z,19.13
2023-05-10T10:55:15.189Z,19.21
2023-05-10T10:58:01.976Z,19.32
2023-05-10T11:00:32.654Z,19.32
2023-05-10T11:03:20.825Z,19.33
2023-05-10T11:05:52.364Z,19.35
2023-05-10T11:08:34.012Z,19.46
2023-05-10T11:11:08.399Z,19.54
2023-05-10T11:13:51.564Z,19.64
2023-05-10T11:16:25.378Z,19.89
2023-05-10T11:18:57.767Z,20.24
2023-05-10T11:21:27.140Z,20.59
2023-05-10T11:23:57.765Z,20.75
2023-05-10T11:26:38.452Z,20.80
2023-05-10T11:29:07.389Z,20.84
2023-05-10T11:31:36.303Z,20.80
2023-05-10T11:34:04.809Z,20.70
2023-05-10T11:36:37.578Z,20.75
2023-05-10T11:39:07.149Z,20.92
2023-05-10T11:41:35.426Z,21.09
2023-05-10T11:44:03.694Z,21.21
2023-05-10T11:46:32.303Z,21.43
2023-05-10T11:49:03.103Z,21.60
2023-05-10T11:51:36.944Z,21.31
2023-05-10T11:54:10.559Z,20.72
2023-05-10T11:56:41.886Z,20.54
2023-05-10T11:59:10.322Z,20.60
2023-05-10T12:01:38.988Z,20.81
2023-05-10T12:04:18.237Z,20.74
2023-05-10T12:06:58.245Z,20.60
2023-05-10T12:09:39.544Z,20.49
2023-05-10T12:12:18.240Z,20.45
2023-05-10T12:14:52.310Z,20.47
2023-05-10T12:17:20.834Z,20.51
2023-05-10T12:19:49.697Z,20.58
2023-05-10T12:22:22.228Z,20.56
2023-05-10T12:24:51.639Z,20.55
2023-05-10T12:27:20.259Z,20.68
2023-05-10T12:29:49.429Z,20.85
2023-05-10T12:32:17.633Z,21.01
2023-05-10T12:34:48.196Z,21.14
2023-05-10T12:37:16.416Z,21.16
2023-05-10T12:39:45.853Z,21.24
2023-05-10T12:42:14.162Z,21.33
2023-05-10T12:44:42.477Z,21.17
2023-05-10T12:47:10.749Z,20.96
2023-05-10T12:49:39.479Z,20.99
2023-05-10T12:52:07.794Z,21.23
2023-05-10T12:54:36.561Z,21.34
2023-05-10T12:57:04.783Z,21.24
2023-05-10T12:59:32.963Z,21.17
2023-05-10T13:02:01.124Z,21.15
2023-05-10T13:04:29.292Z,21.26
2023-05-10T13:07:00.016Z,21.27
2023-05-10T13:09:31.587Z,21.12
2023-05-10T13:11:59.878Z,20.91
2023-05-10T13:14:28.207Z,20.81
2023-05-10T13:16:56.733Z,20.81
2023-05-10T13:19:25.043Z,20.81
2023-05-10T13:21:53.312Z,20.58
2023-05-10T13:24:21.544Z,20.49
2023-05-10T13:26:49.852Z,20.60
2023-05-10T13:29:19.201Z,20.80
2023-05-10T13:31:47.655Z,20.87
2023-05-10T13:34:15.922Z,20.90
2023-05-10T13:36:44.113Z,20.84
2023-05-10T13:39:12.689Z,20.72
2023-05-10T13:41:40.980Z,20.51
2023-05-10T13:44:09.461Z,20.34
2023-05-10T13:46:38.970Z,20.45
2023-05-10T13:49:07.208Z,20.59
2023-05-10T13:51:35.703Z,20.84
2023-05-10T13:54:04.393Z,20.94
2023-05-10T13:56:32.594Z,20.87
2023-05-10T13:59:02.975Z,20.67
2023-05-10T14:01:34.111Z,20.42
2023-05-10T14:04:02.306Z,20.40
2023-05-10T14:06:31.113Z,20.47
2023-05-10T14:08:59.395Z,20.55
2023-05-10T14:11:27.470Z,20.69
2023-05-10T14:13:55.987Z,20.85
2023-05-10T14:16:24.303Z,20.86
2023-05-10T14:18:52.458Z,20.88
2023-05-10T14:21:21.018Z,20.96
2023-05-10T14:23:49.131Z,20.93
2023-05-10T14:26:17.241Z,20.92
2023-05-10T14:28:46.866Z,20.90
2023-05-10T14:31:15.720Z,20.79
2023-05-10T14:33:47.170Z,20.82
2023-05-10T14:36:15.286Z,20.91
2023-05-10T14:38:43.717Z,21.01
2023-05-10T14:41:17.543Z,21.16
2023-05-10T14:43:45.860Z,21.21
2023-05-10T14:46:14.340Z,21.21
2023-05-10T14:48:42.778Z,21.11
2023-05-10T14:51:10.957Z,20.89
2023-05-10T14:53:39.272Z,20.58
2023-05-10T14:56:08.300Z,20.23
2023-05-10T14:58:36.498Z,19.96
2023-05-10T15:01:05.192Z,19.73
2023-05-10T15:03:34.115Z,19.49
2023-05-10T15:06:03.150Z,19.29
2023-05-10T15:08:31.377Z,19.18
2023-05-10T15:10:59.748Z,19.10
2023-05-10T15:13:28.126Z,18.88
2023-05-10T15:15:56.850Z,18.63
2023-05-10T15:18:25.280Z,18.51
2023-05-10T15:20:53.619Z,18.40
2023-05-10T15:23:21.960Z,18.32
2023-05-10T15:25:53.745Z,18.30
2023-05-10T15:28:21.995Z,18.30
2023-05-10T15:30:50.206Z,18.28
2023-05-10T15:33:18.566Z,18.26
2023-05-10T15:35:47.021Z,18.28
2023-05-10T15:38:16.644Z,18.34
2023-05-10T15:40:45.080Z,18.44
2023-05-10T15:43:13.781Z,18.51
2023-05-10T15:45:42.214Z,18.52
2023-05-10T15:48:10.677Z,18.51
2023-05-10T15:50:41.184Z,18.46
2023-05-10T15:53:09.432Z,18.47
2023-05-10T15:55:37.735Z,18.42
2023-05-10T15:58:05.911Z,18.28
2023-05-10T16:00:34.102Z,18.11
2023-05-10T16:03:02.482Z,17.85
2023-05-10T16:05:33.786Z,17.58
2023-05-10T16:08:02.224Z,17.42
2023-05-10T16:10:33.411Z,17.37
2023-05-10T16:13:03.390Z,17.41
2023-05-10T16:15:31.586Z,17.46
2023-05-10T16:18:00.036Z,17.42
2023-05-10T16:20:30.131Z,17.35
2023-05-10T16:23:03.295Z,17.24
2023-05-10T16:25:34.947Z,17.19
2023-05-10T16:28:03.243Z,17.09
2023-05-10T16:30:31.594Z,17.03
2023-05-10T16:33:01.787Z,17.05
2023-05-10T16:35:30.121Z,17.08
2023-05-10T16:37:58.466Z,17.09
2023-05-10T16:40:26.566Z,17.05
2023-05-10T16:42:54.729Z,17.00
2023-05-10T16:45:24.236Z,16.90
2023-05-10T16:47:55.322Z,16.78
2023-05-10T16:50:26.697Z,16.61
2023-05-10T16:53:00.238Z,16.47
2023-05-10T16:55:28.334Z,16.33
2023-05-10T16:57:59.939Z,16.22
2023-05-10T17:00:28.076Z,16.10
2023-05-10T17:02:56.396Z,15.99
2023-05-10T17:05:24.840Z,15.88
2023-05-10T17:07:53.191Z,15.78
2023-05-10T17:10:21.836Z,15.68
2023-05-10T17:12:50.109Z,15.58
2023-05-10T17:15:19.550Z,15.50
2023-05-10T17:17:48.174Z,15.40
2023-05-10T17:20:16.628Z,15.30
2023-05-10T17:22:44.875Z,15.19
2023-05-10T17:25:13.326Z,15.07
2023-05-10T17:27:41.467Z,14.96
2023-05-10T17:30:09.930Z,14.86
2023-05-10T17:32:38.825Z,14.74
2023-05-10T17:35:07.302Z,14.64
2023-05-10T17:37:36.285Z,14.51
2023-05-10T17:40:06.025Z,14.38
2023-05-10T17:42:34.120Z,14.28
2023-05-10T17:45:02.347Z,14.18
2023-05-10T17:47:30.912Z,14.09
2023-05-10T17:49:58.991Z,13.97
2023-05-10T17:52:27.142Z,13.88
2023-05-10T17:54:55.385Z,13.77
2023-05-10T17:57:24.462Z,13.64
2023-05-10T17:59:55.988Z,13.52
2023-05-10T18:02:25.168Z,13.41
2023-05-10T18:04:59.720Z,13.30
2023-05-10T18:07:30.104Z,13.20
2023-05-10T18:09:58.653Z,13.11
2023-05-10T18:12:27.022Z,13.02
2023-05-10T18:14:55.180Z,12.93
2023-05-10T18:17:23.543Z,12.85
2023-05-10T18:19:51.913Z,12.78
2023-05-10T18:22:20.100Z,12.70
2023-05-10T18:24:48.887Z,12.64
2023-05-10T18:27:17.190Z,12.60
2023-05-10T18:29:45.463Z,12.53
2023-05-10T18:32:13.799Z,12.45
2023-05-10T18:34:42.124Z,12.36
2023-05-10T18:37:10.931Z,12.28
2023-05-10T18:39:39.553Z,12.20
2023-05-10T18:42:08.686Z,12.12
2023-05-10T18:44:37.111Z,12.04
2023-05-10T18:47:05.255Z,11.96
2023-05-10T18:49:33.392Z,11.88
2023-05-10T18:52:01.616Z,11.79
2023-05-10T18:54:30.296Z,11.71
2023-05-10T18:56:59.027Z,11.63
2023-05-10T18:59:28.200Z,11.56
2023-05-10T19:01:57.507Z,11.49
2023-05-10T19:04:26.093Z,11.42
2023-05-10T19:06:55.810Z,11.35
2023-05-10T19:09:26.670Z,11.28
2023-05-10T19:11:54.937Z,11.22
2023-05-10T19:14:25.049Z,11.16
2023-05-10T19:16:54.461Z,11.12
2023-05-10T19:19:24.946Z,11.09
2023-05-10T19:21:53.276Z,11.07
2023-05-10T19:24:23.532Z,11.06
2023-05-10T19:26:52.340Z,11.03
2023-05-10T19:29:20.927Z,11.00
2023-05-10T19:31:49.619Z,10.97
2023-05-10T19:34:18.073Z,10.95
2023-05-10T19:36:46.408Z,10.94
2023-05-10T19:39:15.111Z,10.92
2023-05-10T19:41:43.362Z,10.89
2023-05-10T19:44:11.533Z,10.87
2023-05-10T19:46:40.750Z,10.84
2023-05-10T19:49:09.835Z,10.82
2023-05-10T19:51:37.908Z,10.78
2023-05-10T19:54:06.323Z,10.75
2023-05-10T19:56:34.939Z,10.71
2023-05-10T19:59:03.867Z,10.66
2023-05-10T20:01:33.033Z,10.60
2023-05-10T20:04:01.492Z,10.57
2023-05-10T20:06:29.945Z,10.54
2023-05-10T20:08:58.332Z,10.51
2023-05-10T20:11:26.554Z,10.46
2023-05-10T20:13:54.671Z,10.43
2023-05-10T20:16:25.078Z,10.39
2023-05-10T20:18:55.359Z,10.35
2023-05-10T20:21:24.121Z,10.31
2023-05-10T20:23:52.369Z,10.25
2023-05-10T20:26:21.655Z,10.20
2023-05-10T20:28:50.919Z,10.11
2023-05-10T20:31:19.165Z,10.04
2023-05-10T20:33:47.289Z,10.00
2023-05-10T20:36:15.394Z,9.95
2023-05-10T20:38:43.661Z,9.89
2023-05-10T20:41:11.828Z,9.84
2023-05-10T20:43:40.076Z,9.80
2023-05-10T20:46:08.383Z,9.80
2023-05-10T20:48:36.590Z,9.80
2023-05-10T20:51:04.700Z,9.80
2023-05-10T20:53:32.754Z,9.78
2023-05-10T20:56:00.809Z,9.76
2023-05-10T20:58:28.920Z,9.72
2023-05-10T21:00:57.117Z,9.68
2023-05-10T21:03:25.469Z,9.63
2023-05-10T21:05:55.599Z,9.56
2023-05-10T21:08:23.878Z,9.46
2023-05-10T21:10:52.002Z,9.34
2023-05-10T21:13:20.149Z,9.24
2023-05-10T21:15:48.223Z,9.13
2023-05-10T21:18:16.654Z,9.05
2023-05-10T21:20:44.862Z,9.00
2023-05-10T21:23:13.000Z,8.96
2023-05-10T21:25:41.183Z,8.92
2023-05-10T21:28:09.263Z,8.89
2023-05-10T21:30:37.347Z,8.84
2023-05-10T21:33:05.646Z,8.81
2023-05-10T21:35:33.916Z,8.78
2023-05-10T21:38:02.336Z,8.74
2023-05-10T21:40:56.090Z,8.70
2023-05-10T21:43:24.224Z,8.65
2023-05-10T21:45:52.500Z,8.63
2023-05-10T21:48:21.145Z,8.62
2023-05-10T21:50:49.251Z,8.62
2023-05-10T21:53:17.866Z,8.64
2023-05-10T21:55:45.950Z,8.64
2023-05-10T21:58:14.098Z,8.64
2023-05-10T22:00:42.324Z,8.62
2023-05-10T22:03:10.701Z,8.59
2023-05-10T22:05:39.266Z,8.57
2023-05-10T22:08:07.976Z,8.56
2023-05-10T22:10:36.080Z,8.55
2023-05-10T22:13:04.256Z,8.56
2023-05-10T22:15:34.116Z,8.57
2023-05-10T22:18:03.948Z,8.59
2023-05-10T22:20:32.626Z,8.59
2023-05-10T22:23:01.092Z,8.59
2023-05-10T22:25:29.296Z,8.59
2023-05-10T22:27:57.441Z,8.60
2023-05-10T22:30:25.979Z,8.63
2023-05-10T22:32:54.312Z,8.68
2023-05-10T22:35:22.555Z,8.72
2023-05-10T22:37:50.685Z,8.74
2023-05-10T22:40:19.018Z,8.74
2023-05-10T22:42:47.515Z,8.71
2023-05-10T22:45:15.761Z,8.67
2023-05-10T22:47:43.972Z,8.61
2023-05-10T22:50:12.557Z,8.53
2023-05-10T22:52:40.672Z,8.45
2023-05-10T22:55:09.819Z,8.39
2023-05-10T22:57:38.314Z,8.32
2023-05-10T23:00:07.922Z,8.26
2023-05-10T23:02:36.041Z,8.19
2023-05-10T23:05:05.864Z,8.12
2023-05-10T23:07:34.281Z,8.06
2023-05-10T23:10:02.484Z,7.99
2023-05-10T23:12:31.533Z,7.94
2023-05-10T23:14:59.722Z,7.90
2023-05-10T23:17:27.841Z,7.87
2023-05-10T23:19:56.020Z,7.84
2023-05-10T23:22:24.152Z,7.82
2023-05-10T23:24:52.326Z,7.79
2023-05-10T23:27:20.375Z,7.75
2023-05-10T23:29:52.484Z,7.69
2023-05-10T23:32:20.540Z,7.64
2023-05-10T23:34:48.851Z,7.60
2023-05-10T23:37:17.530Z,7.56
2023-05-10T23:39:46.183Z,7.53
2023-05-10T23:42:14.478Z,7.49
2023-05-10T23:44:42.617Z,7.46
2023-05-10T23:47:11.082Z,7.44
2023-05-10T23:49:42.073Z,7.42
2023-05-10T23:52:10.518Z,7.42
2023-05-10T23:54:38.829Z,7.41
2023-05-10T23:57:06.937Z,7.39
2023-05-10T23:59:34.996Z,7.35
